Terminal Aerodrome Forecast
Issued by NWS

Home | Current Version | Previous Version | Graphics & Text | Print | Product List | Glossary On
Versions: 1 2 3 4 5 6 7 8 9 10 11 12 13
000
FTUS43 KABR 151700
TAFMBG
TAF
KMBG 151723Z 1518/1618 18016G24KT P6SM SCT250
     FM160000 13010KT P6SM BKN070
     FM160500 VRB05KT P6SM OVC035
     FM161000 36006KT P6SM OVC015=

USA.gov is the U.S. government's official web portal to all federal, state and local government web resources and services.